Time;durP1;ratioP1;P1;durP2;ratioP2;P2;SDS_P1;SDS_P2;PMS_P1;PMS_P2;Temp;Humidity;BMP_temperature;BMP_pressure;BME280_temperature;BME280_humidity;BME280_pressure;Samples;Min_cycle;Max_cycle;Signal;HPM_P1;HPM_P2
2022/12/01 00:01:30;;;;;;;93.43;30.83;;;1.60;99.90;;;;;;5099670;28;20182;-88
2022/12/01 00:03:58;;;;;;;87.07;33.30;;;;;;;;;;5099208;28;20343;-88
2022/12/01 00:06:25;;;;;;;81.00;32.90;;;1.70;99.90;;;;;;5104945;28;20251;-87
2022/12/01 00:11:38;;;;;;;76.97;32.40;;;1.60;99.90;;;;;;5112383;28;20204;-87
2022/12/01 00:14:05;;;;;;;75.32;31.27;;;1.20;99.90;;;;;;5111990;28;20229;-87
2022/12/01 00:16:39;;;;;;;76.43;30.60;;;1.50;99.90;;;;;;5106629;28;20224;-86
2022/12/01 00:19:06;;;;;;;76.80;29.60;;;1.50;99.90;;;;;;5106201;28;20554;-87
2022/12/01 00:21:33;;;;;;;73.72;32.55;;;1.50;99.90;;;;;;5106668;28;20255;-87
2022/12/01 00:23:59;;;;;;;76.63;30.35;;;1.40;99.90;;;;;;5101931;28;20660;-87
2022/12/01 00:26:27;;;;;;;66.95;28.35;;;1.60;99.90;;;;;;5100211;28;20237;-87
2022/12/01 00:28:56;;;;;;;83.07;31.25;;;1.60;99.90;;;;;;5098674;28;20204;-87
2022/12/01 00:31:24;;;;;;;76.32;30.85;;;1.80;99.90;;;;;;5097902;28;20289;-88
2022/12/01 00:33:52;;;;;;;73.70;30.98;;;2.40;99.90;;;;;;5100262;28;20229;-87
2022/12/01 00:36:19;;;;;;;64.22;29.73;;;1.70;99.90;;;;;;5106977;28;20201;-87
2022/12/01 00:39:33;;;;;;;64.80;30.50;;;1.40;99.90;;;;;;5126488;22;20364;-84
2022/12/01 00:42:03;;;;;;;71.60;28.63;;;;;;;;;;5109985;28;20606;-83
2022/12/01 00:47:29;;;;;;;67.10;29.90;;;;;;;;;;5058010;28;20239;-83
2022/12/01 00:59:24;;;;;;;72.93;29.17;;;1.40;99.90;;;;;;5093330;28;20230;-82
2022/12/01 01:01:51;;;;;;;68.78;27.42;;;;;;;;;;5119459;28;20198;-84
2022/12/01 01:04:23;;;;;;;53.92;25.08;;;;;;;;;;5120715;28;20223;-84
2022/12/01 01:07:12;;;;;;;55.08;27.73;;;1.40;99.90;;;;;;5108908;28;20216;-83
2022/12/01 01:10:24;;;;;;;60.85;30.02;;;1.40;99.90;;;;;;5082903;28;20206;-84
2022/12/01 01:16:18;;;;;;;59.35;26.00;;;1.40;99.90;;;;;;5104774;28;20229;-85
2022/12/01 01:25:17;;;;;;;74.07;31.23;;;;;;;;;;5104578;28;20241;-84
2022/12/01 01:27:47;;;;;;;58.70;27.75;;;;;;;;;;5105737;28;20224;-84
2022/12/01 01:30:23;;;;;;;82.10;30.02;;;;;;;;;;5105981;28;20267;-84
2022/12/01 01:33:00;;;;;;;67.88;30.45;;;;;;;;;;5105732;28;20214;-84
2022/12/01 01:35:52;;;;;;;;;;;;;;;;;;;;;
2022/12/01 01:45:56;;;;;;;67.25;29.25;;;1.40;99.90;;;;;;4895807;29;20196;-83
2022/12/01 01:58:20;;;;;;;68.75;28.35;;;;;;;;;;4887193;29;20237;-84
2022/12/01 02:10:57;;;;;;;57.08;24.90;;;1.40;99.90;;;;;;5081628;28;20248;-84
2022/12/01 02:17:39;;;;;;;70.32;27.95;;;1.30;99.90;;;;;;5039760;28;20214;-84
2022/12/01 02:55:03;;;;;;;64.13;27.00;;;0.90;99.90;;;;;;5002278;28;20239;-83
2022/12/01 02:58:03;;;;;;;63.45;27.80;;;;;;;;;;5035877;28;20217;-84
2022/12/01 03:26:02;;;;;;;;;;;;;;;;;;;;;
2022/12/01 03:42:02;;;;;;;76.90;30.75;;;;;;;;;;4824448;29;20203;-84
2022/12/01 03:51:45;;;;;;;76.95;29.92;;;;;;;;;;5010608;28;20209;-84
2022/12/01 03:54:50;;;;;;;72.38;30.92;;;;;;;;;;5000264;28;20216;-84
2022/12/01 04:05:15;;;;;;;69.50;30.90;;;0.80;99.90;;;;;;4880129;29;20330;-84
2022/12/01 04:10:38;;;;;;;79.75;28.95;;;;;;;;;;5125180;28;20204;-83
2022/12/01 04:13:27;;;;;;;74.50;29.98;;;;;;;;;;5127182;28;20193;-83
2022/12/01 04:18:49;;;;;;;76.97;33.70;;;;;;;;;;5101060;28;20236;-82
2022/12/01 04:21:16;;;;;;;65.57;29.67;;;0.70;99.90;;;;;;5133766;22;20591;-85
2022/12/01 04:24:00;;;;;;;79.53;32.13;;;0.70;99.90;;;;;;5112943;28;20198;-85
2022/12/01 04:26:28;;;;;;;87.75;31.52;;;0.90;99.90;;;;;;5112473;28;20241;-86
2022/12/01 04:28:56;;;;;;;74.00;34.63;;;0.50;99.90;;;;;;5111929;28;20206;-86
2022/12/01 04:31:23;;;;;;;84.65;32.95;;;0.80;99.90;;;;;;5100525;28;20222;-86
2022/12/01 04:33:50;;;;;;;83.25;32.50;;;1.00;99.90;;;;;;5086148;28;20233;-86
2022/12/01 04:36:17;;;;;;;77.47;31.20;;;0.70;99.90;;;;;;5086967;28;20226;-86
2022/12/01 04:38:44;;;;;;;90.72;36.38;;;0.70;99.90;;;;;;5089845;28;20260;-86
2022/12/01 04:41:11;;;;;;;73.95;29.60;;;1.00;99.90;;;;;;5089476;28;20290;-86
2022/12/01 04:43:38;;;;;;;75.60;32.35;;;1.10;99.90;;;;;;5089450;28;20689;-86
2022/12/01 04:46:07;;;;;;;78.50;29.88;;;0.90;99.90;;;;;;5095502;28;20266;-86
2022/12/01 04:48:35;;;;;;;84.75;33.00;;;1.20;99.90;;;;;;5101887;28;20201;-86
2022/12/01 04:51:03;;;;;;;83.90;35.70;;;0.60;99.90;;;;;;5101707;28;20218;-86
2022/12/01 04:53:29;;;;;;;90.13;36.10;;;0.50;99.90;;;;;;5101916;28;20186;-87
2022/12/01 04:55:56;;;;;;;77.95;32.75;;;0.70;99.90;;;;;;5101946;28;20206;-87
2022/12/01 04:58:25;;;;;;;86.38;33.08;;;0.70;99.90;;;;;;5101906;28;20209;-87
2022/12/01 05:00:52;;;;;;;84.68;33.80;;;1.00;99.90;;;;;;5099506;28;20206;-87
2022/12/01 05:03:21;;;;;;;78.50;32.53;;;0.90;99.90;;;;;;5092349;28;20233;-86
2022/12/01 05:05:48;;;;;;;83.25;31.55;;;0.80;99.90;;;;;;5092300;28;20270;-87
2022/12/01 05:08:15;;;;;;;79.63;31.90;;;0.70;99.90;;;;;;5086039;28;20207;-85
2022/12/01 05:10:43;;;;;;;82.18;34.13;;;0.60;99.90;;;;;;5087150;28;20230;-85
2022/12/01 05:13:10;;;;;;;82.05;35.00;;;0.60;99.90;;;;;;5089588;28;20206;-85
2022/12/01 05:15:37;;;;;;;80.47;29.85;;;0.80;99.90;;;;;;5087975;28;20237;-86
2022/12/01 05:18:05;;;;;;;81.55;33.13;;;1.10;99.90;;;;;;5088874;28;20285;-85
2022/12/01 05:23:18;;;;;;;84.25;36.17;;;0.40;99.90;;;;;;5089219;28;20183;-85
2022/12/01 05:25:46;;;;;;;74.90;32.90;;;0.80;99.90;;;;;;5088223;28;20226;-85
2022/12/01 05:28:12;;;;;;;80.18;31.48;;;0.80;99.90;;;;;;5088035;28;20566;-86
2022/12/01 05:30:40;;;;;;;85.80;33.58;;;1.10;99.90;;;;;;5088051;28;20222;-86
2022/12/01 05:33:07;;;;;;;80.43;33.42;;;1.30;99.90;;;;;;5087934;28;20210;-85
2022/12/01 05:35:35;;;;;;;95.72;36.05;;;1.00;99.90;;;;;;5093248;28;20206;-85
2022/12/01 05:38:03;;;;;;;78.10;32.85;;;1.00;99.90;;;;;;5087373;28;20195;-86
2022/12/01 05:40:30;;;;;;;87.35;35.22;;;2.20;99.90;;;;;;5087907;28;20205;-85
2022/12/01 05:42:57;;;;;;;87.85;34.70;;;1.00;99.90;;;;;;5086705;28;20362;-85
2022/12/01 05:45:25;;;;;;;81.97;32.63;;;0.60;99.90;;;;;;5087253;28;20216;-85
2022/12/01 05:47:55;;;;;;;72.93;31.75;;;0.80;99.90;;;;;;5086098;28;20218;-85
2022/12/01 05:50:22;;;;;;;84.13;32.33;;;1.00;99.90;;;;;;5085536;28;20233;-85
2022/12/01 05:52:51;;;;;;;88.25;33.40;;;;;;;;;;5086899;28;20249;-85
2022/12/01 05:55:19;;;;;;;81.28;32.63;;;0.40;99.90;;;;;;5091586;28;20199;-85
2022/12/01 05:57:46;;;;;;;83.50;32.00;;;0.70;99.90;;;;;;5091789;28;20266;-85
2022/12/01 06:00:15;;;;;;;73.88;32.25;;;0.80;99.90;;;;;;5090385;28;20238;-85
2022/12/01 06:02:43;;;;;;;69.97;30.80;;;0.60;99.90;;;;;;5090454;28;20234;-85
2022/12/01 06:08:19;;;;;;;73.50;32.15;;;;;;;;;;5093180;28;20241;-85
2022/12/01 06:10:53;;;;;;;85.05;34.45;;;;;;;;;;5097092;28;20418;-85
2022/12/01 06:13:36;;;;;;;77.53;33.78;;;;;;;;;;5089118;28;20207;-84
2022/12/01 06:18:57;;;;;;;93.95;37.72;;;;;;;;;;5096719;28;20544;-86
2022/12/01 06:21:31;;;;;;;80.05;37.15;;;;;;;;;;5098929;28;20226;-87
2022/12/01 06:24:04;;;;;;;79.03;31.90;;;;;;;;;;5099182;28;20210;-86
2022/12/01 06:26:31;;;;;;;78.32;34.10;;;;;;;;;;5098586;28;20219;-85
2022/12/01 06:29:02;;;;;;;88.28;34.92;;;;;;;;;;5097614;28;20207;-85
2022/12/01 06:31:30;;;;;;;77.85;35.22;;;;;;;;;;5091293;28;20245;-86
2022/12/01 06:33:57;;;;;;;85.80;33.95;;;;;;;;;;5091913;28;20210;-86
2022/12/01 06:36:24;;;;;;;70.72;31.42;;;;;;;;;;5092171;28;20205;-85
2022/12/01 06:38:52;;;;;;;81.15;34.53;;;;;;;;;;5092993;28;20233;-84
2022/12/01 06:41:20;;;;;;;76.13;31.67;;;;;;;;;;5095561;28;20233;-85
2022/12/01 06:43:48;;;;;;;76.35;33.92;;;;;;;;;;5096012;28;20182;-85
2022/12/01 06:46:22;;;;;;;85.00;35.90;;;;;;;;;;5083443;28;20203;-86
2022/12/01 06:49:00;;;;;;;70.55;33.17;;;;;;;;;;5080338;28;20198;-86
2022/12/01 06:51:29;;;;;;;68.68;31.92;;;;;;;;;;5083500;28;20272;-87
2022/12/01 06:53:56;;;;;;;78.57;34.40;;;;;;;;;;5083548;28;20277;-85
2022/12/01 06:56:31;;;;;;;62.05;29.55;;;;;;;;;;5087244;28;20191;-86
2022/12/01 06:59:11;;;;;;;97.32;37.42;;;;;;;;;;5097833;28;20225;-87
2022/12/01 07:02:01;;;;;;;79.93;32.72;;;;;;;;;;5098234;28;20213;-86
2022/12/01 07:07:59;;;;;;;83.95;35.15;;;;;;;;;;5078436;28;20234;-86
2022/12/01 07:10:26;;;;;;;76.78;33.05;;;;;;;;;;5087136;28;20202;-86
2022/12/01 07:13:19;;;;;;;80.47;33.97;;;1.00;99.90;;;;;;5085745;28;20228;-87
2022/12/01 07:15:50;;;;;;;76.80;32.75;;;;;;;;;;5086117;28;20212;-87
2022/12/01 07:18:20;;;;;;;89.72;37.03;;;;;;;;;;5081769;28;20687;-87
2022/12/01 07:21:02;;;;;;;93.35;35.35;;;;;;;;;;5078034;28;20214;-87
2022/12/01 07:23:40;;;;;;;94.93;40.55;;;;;;;;;;5079502;28;20721;-87
2022/12/01 07:26:13;;;;;;;96.75;40.72;;;;;;;;;;5079730;28;20289;-88
2022/12/01 07:32:03;;;;;;;102.20;41.45;;;;;;;;;;5075732;28;20286;-87
2022/12/01 07:34:44;;;;;;;111.47;38.95;;;1.20;99.90;;;;;;5078155;28;20264;-87
2022/12/01 07:37:17;;;;;;;91.93;41.50;;;;;;;;;;5077196;28;20207;-87
2022/12/01 07:39:50;;;;;;;92.90;38.05;;;;;;;;;;5077024;28;20206;-87
2022/12/01 07:42:26;;;;;;;112.15;43.35;;;;;;;;;;5075998;28;20571;-87
2022/12/01 07:44:53;;;;;;;100.75;41.92;;;;;;;;;;5078658;28;20210;-87
2022/12/01 07:47:21;;;;;;;100.10;40.08;;;1.10;99.90;;;;;;5075725;28;20300;-87
2022/12/01 07:49:48;;;;;;;108.82;41.83;;;1.10;99.90;;;;;;5079777;28;20238;-87
2022/12/01 07:52:15;;;;;;;110.72;40.65;;;0.80;99.90;;;;;;5077625;28;20229;-87
2022/12/01 07:54:42;;;;;;;128.35;42.28;;;0.90;99.90;;;;;;5077538;28;20213;-87
2022/12/01 07:57:09;;;;;;;121.07;44.38;;;1.10;99.90;;;;;;5080416;28;20221;-87
2022/12/01 07:59:37;;;;;;;118.90;41.35;;;0.80;99.90;;;;;;5076749;28;20214;-86
2022/12/01 08:02:04;;;;;;;124.40;44.92;;;1.10;99.90;;;;;;5076477;28;20289;-87
2022/12/01 08:04:32;;;;;;;115.03;43.80;;;1.30;99.90;;;;;;5077634;28;20234;-87
2022/12/01 08:06:59;;;;;;;122.57;46.63;;;0.90;99.90;;;;;;5078646;28;20213;-87
2022/12/01 08:09:26;;;;;;;120.10;42.95;;;1.00;99.90;;;;;;5077859;28;20225;-87
2022/12/01 08:11:53;;;;;;;112.43;42.97;;;;;;;;;;5089931;28;20226;-87
2022/12/01 08:14:22;;;;;;;112.03;42.08;;;1.20;99.90;;;;;;5098484;28;20202;-87
2022/12/01 08:16:49;;;;;;;106.25;38.85;;;;;;;;;;5098550;28;20195;-87
2022/12/01 08:19:16;;;;;;;122.80;46.60;;;;;;;;;;5098392;28;20201;-87
2022/12/01 08:21:49;;;;;;;117.55;43.63;;;;;;;;;;5098151;28;20221;-88
2022/12/01 08:24:16;;;;;;;132.68;47.83;;;;;;;;;;5098474;28;20175;-87
2022/12/01 08:26:46;;;;;;;118.85;42.00;;;;;;;;;;5089045;28;20270;-88
2022/12/01 08:29:15;;;;;;;108.88;41.20;;;;;;;;;;5086186;28;20190;-87
2022/12/01 08:31:43;;;;;;;124.35;46.80;;;;;;;;;;5077914;28;20280;-87
2022/12/01 08:34:10;;;;;;;128.65;46.20;;;1.10;99.90;;;;;;5077396;28;20293;-87
2022/12/01 08:36:37;;;;;;;116.95;44.33;;;;;;;;;;5076552;28;20211;-87
2022/12/01 08:39:08;;;;;;;130.50;47.38;;;1.60;99.90;;;;;;5076463;28;20211;-87
2022/12/01 08:41:35;;;;;;;116.57;43.47;;;1.20;99.90;;;;;;5078695;28;20218;-87
2022/12/01 08:44:04;;;;;;;116.40;44.47;;;1.20;99.90;;;;;;5078207;28;20206;-87
2022/12/01 08:46:33;;;;;;;127.60;49.03;;;1.10;99.90;;;;;;5078784;28;20209;-87
2022/12/01 08:49:01;;;;;;;129.88;47.17;;;1.10;99.90;;;;;;5076462;28;20373;-87
2022/12/01 08:51:28;;;;;;;119.13;46.85;;;0.90;99.90;;;;;;5076643;28;20233;-87
2022/12/01 08:53:56;;;;;;;128.73;45.42;;;1.20;99.90;;;;;;5077431;28;20287;-87
2022/12/01 08:56:26;;;;;;;116.85;43.53;;;1.40;99.90;;;;;;5080742;28;20605;-87
2022/12/01 08:58:54;;;;;;;115.05;44.20;;;1.40;99.90;;;;;;5081870;28;20225;-87
2022/12/01 09:01:21;;;;;;;121.60;45.90;;;1.40;99.90;;;;;;5080955;28;20252;-87
2022/12/01 09:04:03;;;;;;;127.88;44.75;;;1.40;99.90;;;;;;5079786;28;20242;-87
2022/12/01 09:06:31;;;;;;;106.75;43.42;;;1.50;99.90;;;;;;5081351;28;20252;-87
2022/12/01 09:08:59;;;;;;;90.15;41.35;;;1.30;99.90;;;;;;5087161;28;20227;-88
2022/12/01 09:11:30;;;;;;;113.00;42.20;;;1.40;99.90;;;;;;5085690;28;20233;-86
2022/12/01 09:14:06;;;;;;;113.50;43.85;;;1.40;99.90;;;;;;5088630;28;20209;-87
2022/12/01 09:16:35;;;;;;;97.18;41.70;;;;;;;;;;5087859;28;20246;-88
2022/12/01 09:19:02;;;;;;;111.05;40.45;;;;;;;;;;5088194;28;20198;-87
2022/12/01 09:21:30;;;;;;;122.55;42.95;;;;;;;;;;5086917;28;20229;-87
2022/12/01 09:23:58;;;;;;;99.55;39.28;;;;;;;;;;5086232;28;20218;-87
2022/12/01 09:26:29;;;;;;;107.60;43.13;;;;;;;;;;5081590;28;20691;-87
2022/12/01 09:28:59;;;;;;;121.63;44.67;;;1.30;99.90;;;;;;5081844;28;20218;-86
2022/12/01 09:31:26;;;;;;;103.90;42.20;;;1.40;99.90;;;;;;5086907;28;20253;-87
2022/12/01 09:33:57;;;;;;;126.43;44.40;;;;;;;;;;5097331;28;20214;-87
2022/12/01 09:36:24;;;;;;;119.30;44.55;;;1.50;99.90;;;;;;5100046;28;20187;-86
2022/12/01 09:38:51;;;;;;;118.38;47.65;;;1.50;99.90;;;;;;5099871;28;20201;-86
2022/12/01 09:41:22;;;;;;;117.22;42.75;;;1.40;99.90;;;;;;5098540;28;20242;-86
2022/12/01 09:43:56;;;;;;;110.18;44.20;;;1.10;99.90;;;;;;5083558;28;20270;-87
2022/12/01 09:46:28;;;;;;;99.60;42.17;;;1.30;99.90;;;;;;5082535;28;20187;-88
2022/12/01 09:48:56;;;;;;;108.55;42.92;;;1.70;99.90;;;;;;5085436;28;20570;-86
2022/12/01 09:51:26;;;;;;;111.88;40.92;;;1.60;99.90;;;;;;5080009;28;20758;-86
2022/12/01 09:53:56;;;;;;;120.25;46.15;;;1.20;99.90;;;;;;5080115;28;20222;-87
2022/12/01 09:56:29;;;;;;;114.43;45.83;;;1.60;49.40;;;;;;5081168;28;20514;-87
2022/12/01 09:59:04;;;;;;;105.50;41.17;;;1.50;30.30;;;;;;5079959;28;20556;-87
2022/12/01 10:01:34;;;;;;;99.82;41.03;;;1.60;21.80;;;;;;5081198;28;20222;-87
2022/12/01 10:04:08;;;;;;;98.55;42.17;;;1.50;1.00;;;;;;5083827;28;20202;-87
2022/12/01 10:06:42;;;;;;;108.13;42.63;;;1.50;47.00;;;;;;5090677;28;20213;-87
2022/12/01 10:09:20;;;;;;;94.47;40.25;;;1.50;1.00;;;;;;5090654;28;20213;-87
2022/12/01 10:11:51;;;;;;;108.35;42.33;;;1.40;28.70;;;;;;5086860;28;20236;-87
2022/12/01 10:14:22;;;;;;;104.55;42.42;;;;;;;;;;5080468;28;20233;-87
2022/12/01 10:16:59;;;;;;;116.57;42.33;;;1.30;99.90;;;;;;5081657;28;20257;-86
2022/12/01 10:19:32;;;;;;;108.28;41.28;;;1.50;99.90;;;;;;5094674;28;20170;-86
2022/12/01 10:22:29;;;;;;;112.70;45.08;;;1.20;99.90;;;;;;5098800;28;20265;-87
2022/12/01 10:25:04;;;;;;;118.30;42.50;;;1.40;94.50;;;;;;5098570;28;20187;-86
2022/12/01 10:27:43;;;;;;;106.05;41.20;;;1.50;72.50;;;;;;5091728;28;20624;-86
2022/12/01 10:30:16;;;;;;;103.20;42.70;;;1.60;93.90;;;;;;5087606;28;20207;-87
2022/12/01 10:32:55;;;;;;;89.97;41.00;;;1.60;39.80;;;;;;5092260;28;20222;-87
2022/12/01 10:35:24;;;;;;;105.25;40.80;;;1.40;99.90;;;;;;5100040;28;20195;-87
2022/12/01 10:37:56;;;;;;;92.47;40.10;;;1.60;99.90;;;;;;5099792;28;20190;-87
2022/12/01 10:40:24;;;;;;;109.07;42.83;;;1.60;99.90;;;;;;5099741;28;20183;-86
2022/12/01 10:42:51;;;;;;;120.00;45.38;;;1.60;99.90;;;;;;5099661;28;20245;-86
2022/12/01 10:45:23;;;;;;;90.32;41.47;;;1.60;99.90;;;;;;5096710;28;20198;-85
2022/12/01 10:48:13;;;;;;;101.93;43.30;;;1.40;99.90;;;;;;5094044;28;20198;-86
2022/12/01 10:50:41;;;;;;;78.45;38.63;;;1.40;75.80;;;;;;5096539;28;20174;-86
2022/12/01 10:53:27;;;;;;;91.80;40.83;;;1.80;99.90;;;;;;5092933;28;20206;-85
2022/12/01 10:56:02;;;;;;;89.75;41.80;;;1.60;46.90;;;;;;5094058;28;20221;-86
2022/12/01 10:58:31;;;;;;;89.90;39.20;;;1.70;1.00;;;;;;5098485;28;20225;-86
2022/12/01 11:01:03;;;;;;;91.13;40.83;;;1.50;63.10;;;;;;5091193;28;20501;-86
2022/12/01 11:03:32;;;;;;;86.57;39.25;;;1.70;36.00;;;;;;5081717;28;20197;-87
2022/12/01 11:06:02;;;;;;;90.78;40.00;;;1.80;13.70;;;;;;5080260;28;20233;-87
2022/12/01 11:08:41;;;;;;;81.82;35.67;;;1.50;1.00;;;;;;5084350;28;20218;-86
2022/12/01 11:11:34;;;;;;;80.43;38.35;;;1.50;1.00;;;;;;5085525;28;20232;-87
2022/12/01 11:14:20;;;;;;;77.30;35.75;;;1.60;1.00;;;;;;5086109;28;20190;-86
2022/12/01 11:17:00;;;;;;;92.38;37.22;;;1.60;1.00;;;;;;5085553;28;20198;-86
2022/12/01 11:19:32;;;;;;;85.60;36.40;;;1.50;1.00;;;;;;5083605;28;20645;-87
2022/12/01 11:25:47;;;;;;;78.35;35.15;;;;;;;;;;5081927;28;20208;-88
2022/12/01 11:32:16;;;;;;;78.00;32.85;;;1.60;1.00;;;;;;5074842;28;20242;-87
2022/12/01 11:38:47;;;;;;;82.22;34.53;;;1.60;1.00;;;;;;5094900;28;20206;-87
2022/12/01 11:41:25;;;;;;;72.97;34.53;;;;;;;;;;4998152;28;20225;-85
2022/12/01 11:44:40;;;;;;;76.53;36.03;;;1.60;1.00;;;;;;5098329;28;20189;-87
2022/12/01 11:51:11;;;;;;;72.50;33.50;;;1.60;1.00;;;;;;5096944;28;20187;-86
2022/12/01 11:54:09;;;;;;;73.65;35.97;;;1.60;1.00;;;;;;5098278;28;20186;-86
2022/12/01 11:56:55;;;;;;;77.43;35.60;;;1.60;1.00;;;;;;5091160;28;20210;-87
2022/12/01 11:59:32;;;;;;;70.95;31.08;;;;;;;;;;5015947;28;20196;-87
2022/12/01 12:02:45;;;;;;;75.25;33.83;;;1.50;1.00;;;;;;5006020;28;20225;-87
2022/12/01 12:08:59;;;;;;;60.20;30.13;;;1.70;1.00;;;;;;5017370;28;20225;-85
2022/12/01 12:11:40;;;;;;;73.55;32.58;;;1.70;1.00;;;;;;4999955;28;20298;-87
2022/12/01 12:14:37;;;;;;;70.82;33.92;;;1.80;1.00;;;;;;5006015;28;20189;-87
2022/12/01 12:17:30;;;;;;;64.93;34.40;;;1.70;1.00;;;;;;4997112;28;20212;-86
2022/12/01 12:20:19;;;;;;;80.00;33.90;;;1.80;1.00;;;;;;4998512;28;20215;-87
2022/12/01 12:23:00;;;;;;;75.43;34.05;;;1.70;1.00;;;;;;4998502;28;20228;-87
2022/12/01 12:25:47;;;;;;;79.40;34.78;;;1.70;1.00;;;;;;4997770;28;20189;-87
2022/12/01 12:28:27;;;;;;;85.45;34.28;;;1.70;1.00;;;;;;4998495;28;20298;-86
2022/12/01 12:31:10;;;;;;;74.90;33.78;;;1.80;1.00;;;;;;4999705;28;20189;-87
2022/12/01 12:34:06;;;;;;;64.50;31.52;;;1.60;1.00;;;;;;5008830;28;20209;-86
2022/12/01 12:36:44;;;;;;;73.63;32.05;;;1.60;1.00;;;;;;4999607;28;20194;-86
2022/12/01 12:39:27;;;;;;;64.47;30.35;;;1.60;1.00;;;;;;5000106;28;20201;-87
2022/12/01 12:42:00;;;;;;;64.55;34.17;;;1.70;1.00;;;;;;4998510;28;20718;-87
2022/12/01 12:45:00;;;;;;;71.68;30.75;;;1.70;1.00;;;;;;5002028;28;20214;-88
2022/12/01 12:48:24;;;;;;;58.47;32.17;;;1.70;1.00;;;;;;5046426;28;20242;-87
2022/12/01 12:54:28;;;;;;;;;;;;;;;;;;;;;
2022/12/01 13:00:18;;;;;;;60.03;27.80;;;1.80;1.00;;;;;;5000566;28;20293;-87
2022/12/01 13:02:50;;;;;;;65.93;32.00;;;1.80;1.00;;;;;;5015516;28;20225;-86
2022/12/01 13:11:44;;;;;;;58.92;26.73;;;1.80;1.00;;;;;;5010792;28;20265;-86
2022/12/01 13:14:50;;;;;;;58.72;29.27;;;1.80;1.00;;;;;;5007651;28;20199;-87
2022/12/01 13:33:47;;;;;;;53.92;27.65;;;1.80;1.00;;;;;;5001359;28;20253;-87
2022/12/01 13:36:20;;;;;;;64.97;30.77;;;;;;;;;;5016056;28;20209;-87
2022/12/01 13:39:08;;;;;;;59.15;29.52;;;1.80;1.00;;;;;;5006468;28;20616;-87
2022/12/01 13:59:43;;;;;;;63.88;28.85;;;1.80;99.90;;;;;;5099037;28;20198;-87
2022/12/01 14:02:25;;;;;;;60.70;28.65;;;;;;;;;;5113186;28;20306;-87
2022/12/01 14:04:59;;;;;;;51.70;24.95;;;;;;;;;;5118972;28;20182;-85
2022/12/01 14:08:01;;;;;;;50.33;27.10;;;1.90;99.90;;;;;;5120495;28;20190;-88
2022/12/01 14:10:32;;;;;;;55.95;25.15;;;;;;;;;;5051765;28;20213;-87
2022/12/01 14:13:21;;;;;;;61.25;28.13;;;2.00;99.90;;;;;;5116605;28;20209;-87
2022/12/01 14:16:33;;;;;;;58.20;30.10;;;1.90;99.90;;;;;;5118486;28;20212;-87
2022/12/01 14:25:42;;;;;;;60.38;30.75;;;;;;;;;;5101859;28;20284;-88
2022/12/01 14:28:53;;;;;;;48.95;26.55;;;1.90;99.90;;;;;;5115127;28;20253;-88
2022/12/01 14:31:21;;;;;;;63.05;29.17;;;;;;;;;;5104908;28;20236;-89
2022/12/01 14:38:11;;;;;;;52.63;26.80;;;1.90;99.90;;;;;;5082613;28;20198;-89
2022/12/01 14:45:03;;;;;;;54.05;28.27;;;1.90;99.90;;;;;;5031926;28;20239;-89
2022/12/01 14:48:15;;;;;;;53.75;26.67;;;1.90;99.90;;;;;;5109931;28;20227;-89
2022/12/01 15:07:26;;;;;;;51.65;25.63;;;2.00;99.90;;;;;;5056596;28;20231;-87
2022/12/01 15:17:15;;;;;;;52.63;25.10;;;2.00;99.90;;;;;;5078107;28;20194;-89
2022/12/01 15:19:53;;;;;;;51.58;26.25;;;;;;;;;;5028683;28;20223;-89
2022/12/01 15:22:35;;;;;;;55.45;27.15;;;;;;;;;;5064534;28;20252;-87
2022/12/01 15:31:32;;;;;;;67.53;32.83;;;2.00;99.90;;;;;;5235766;22;20225;-89
2022/12/01 15:34:06;;;;;;;58.83;27.45;;;;;;;;;;5119148;28;20216;-88
2022/12/01 15:37:09;;;;;;;54.30;28.50;;;;;;;;;;5118937;28;20206;-90
2022/12/01 15:55:43;;;;;;;53.60;29.38;;;1.80;1.00;;;;;;5015740;26;20219;-88
2022/12/01 16:01:25;;;;;;;58.45;29.80;;;1.70;39.70;;;;;;5063431;28;20229;-88
2022/12/01 16:13:58;;;;;;;59.60;29.00;;;1.60;99.90;;;;;;5069089;28;20202;-85
2022/12/01 16:20:24;;;;;;;52.28;26.98;;;1.60;99.90;;;;;;5088766;28;20206;-84
2022/12/01 16:22:58;;;;;;;84.05;26.35;;;;;;;;;;5086658;28;20309;-84
2022/12/01 16:25:53;;;;;;;55.38;28.90;;;1.60;99.90;;;;;;5086487;28;20270;-85
2022/12/01 16:31:30;;;;;;;64.45;29.73;;;;;;;;;;5085168;28;20198;-84
2022/12/01 16:34:10;;;;;;;56.75;31.23;;;;;;;;;;5086280;28;20273;-84
2022/12/01 16:36:45;;;;;;;64.80;30.02;;;;;;;;;;5086077;28;20213;-83
2022/12/01 16:42:10;;;;;;;58.15;27.65;;;;;;;;;;5085133;28;20229;-84
2022/12/01 16:50:33;;;;;;;69.32;31.45;;;;;;;;;;5102353;28;20300;-84
2022/12/01 17:00:26;;;;;;;;;;;;;;;;;;;;;
2022/12/01 17:07:00;;;;;;;;;;;;;;;;;;;;;
2022/12/01 17:09:55;;;;;;;56.70;29.20;;;;;;;;;;4948309;28;20247;-86
2022/12/01 17:13:18;;;;;;;66.35;28.20;;;1.40;99.90;;;;;;5087111;27;20201;-86
2022/12/01 17:32:57;;;;;;;66.53;29.33;;;;;;;;;;4930701;28;20196;-85
2022/12/01 17:39:53;;;;;;;61.65;28.25;;;1.30;99.90;;;;;;4922557;29;20228;-84
2022/12/01 18:05:02;;;;;;;;;;;;;;;;;;;;;
2022/12/01 18:10:45;;;;;;;73.47;30.85;;;;;;;;;;5067911;28;20230;-84
2022/12/01 18:13:45;;;;;;;62.88;29.52;;;1.40;99.90;;;;;;5113518;28;20205;-83
2022/12/01 18:17:34;;;;;;;65.93;31.85;;;1.40;99.90;;;;;;5082916;28;20224;-85
2022/12/01 18:30:48;;;;;;;67.55;33.78;;;1.40;99.90;;;;;;4996684;28;20449;-84
2022/12/01 18:34:01;;;;;;;62.67;30.10;;;;;;;;;;4963706;29;20206;-84
2022/12/01 18:37:39;;;;;;;;;;;;;;;;;;;;;
2022/12/01 18:40:28;;;;;;;56.63;29.02;;;;;;;;;;4881725;29;20289;-85
2022/12/01 18:43:28;;;;;;;69.03;34.08;;;1.50;99.90;;;;;;4897064;29;20211;-84
2022/12/01 18:54:45;;;;;;;59.97;30.17;;;;;;;;;;5007563;28;20330;-87
2022/12/01 19:08:26;;;;;;;;;;;;;;;;;;;;;
2022/12/01 19:52:44;;;;;;;51.47;29.02;;;;;;;;;;4855511;29;20369;-85
2022/12/01 20:33:01;;;;;;;62.78;33.00;;;;;;;;;;4980648;28;20288;-84
2022/12/01 20:39:19;;;;;;;57.65;27.58;;;1.80;99.90;;;;;;5101954;28;20244;-84
2022/12/01 20:42:54;;;;;;;47.42;25.48;;;1.80;99.90;;;;;;5103061;28;20196;-83
2022/12/01 20:49:01;;;;;;;55.00;31.45;;;1.80;99.90;;;;;;5078468;28;20262;-85
2022/12/01 20:58:14;;;;;;;48.78;28.02;;;;;;;;;;4998075;28;20225;-86
2022/12/01 21:08:00;;;;;;;50.75;26.65;;;;;;;;;;5024761;28;20259;-86
2022/12/01 21:20:00;;;;;;;46.08;25.90;;;1.90;99.90;;;;;;5098280;28;20209;-84
2022/12/01 21:22:27;;;;;;;56.88;29.73;;;1.60;99.90;;;;;;5103423;28;20186;-85
2022/12/01 21:25:06;;;;;;;53.92;28.73;;;1.20;99.90;;;;;;5103298;28;20228;-86
2022/12/01 21:27:34;;;;;;;56.50;31.17;;;1.90;99.90;;;;;;5112838;28;20871;-84
2022/12/01 21:30:05;;;;;;;57.28;29.08;;;1.50;99.90;;;;;;5117880;28;20224;-85
2022/12/01 21:32:36;;;;;;;46.17;28.92;;;1.60;99.90;;;;;;5106899;28;20285;-86
2022/12/01 21:35:14;;;;;;;51.70;26.92;;;1.90;99.90;;;;;;5107428;28;20202;-86
2022/12/01 21:37:41;;;;;;;50.88;26.00;;;2.00;99.90;;;;;;5103346;28;20220;-86
2022/12/01 21:40:16;;;;;;;54.97;28.48;;;1.70;99.90;;;;;;5114226;28;20209;-85
2022/12/01 21:42:43;;;;;;;51.38;27.08;;;1.60;99.90;;;;;;5110619;28;20205;-87
2022/12/01 21:45:22;;;;;;;55.45;28.55;;;1.90;99.90;;;;;;5109954;28;20233;-86
2022/12/01 21:47:49;;;;;;;47.55;26.20;;;1.90;99.90;;;;;;5116104;28;20229;-87
2022/12/01 21:50:23;;;;;;;54.80;28.33;;;1.80;99.90;;;;;;5115333;28;20217;-84
2022/12/01 21:52:55;;;;;;;50.90;27.33;;;2.20;99.90;;;;;;5113964;28;20205;-86
2022/12/01 21:55:34;;;;;;;53.13;26.92;;;2.20;99.90;;;;;;5111940;28;20213;-84
2022/12/01 21:58:02;;;;;;;50.72;27.65;;;1.60;99.90;;;;;;5102277;28;20708;-86
2022/12/01 22:00:32;;;;;;;48.63;26.67;;;1.80;99.90;;;;;;5102065;28;20213;-86
2022/12/01 22:03:15;;;;;;;48.75;26.60;;;2.10;99.90;;;;;;5101984;28;20634;-85
2022/12/01 22:05:49;;;;;;;53.33;26.83;;;1.70;99.90;;;;;;5103385;28;20190;-86
2022/12/01 22:11:22;;;;;;;;;;;;;;;;;;;;;
2022/12/01 22:13:59;;;;;;;43.75;25.27;;;1.90;99.90;;;;;;5127541;28;20220;-86
2022/12/01 22:16:35;;;;;;;60.20;28.52;;;2.00;99.90;;;;;;5126223;28;20200;-87
2022/12/01 22:19:29;;;;;;;50.78;27.73;;;1.90;99.90;;;;;;5109149;28;20224;-87
2022/12/01 22:22:28;;;;;;;46.92;25.20;;;1.90;99.90;;;;;;5103758;28;20201;-87
2022/12/01 22:25:07;;;;;;;47.38;25.60;;;1.90;99.90;;;;;;5104265;28;20216;-86
2022/12/01 22:27:45;;;;;;;48.67;25.33;;;1.90;99.90;;;;;;5105767;28;20206;-87
2022/12/01 22:30:29;;;;;;;52.38;25.15;;;1.90;99.90;;;;;;5113074;28;20197;-87
2022/12/01 22:38:41;;;;;;;53.08;26.23;;;;;;;;;;5103155;28;20243;-88
2022/12/01 22:44:43;;;;;;;52.88;28.02;;;;;;;;;;5092515;28;20670;-87
2022/12/01 22:47:42;;;;;;;49.80;25.60;;;2.00;99.90;;;;;;5100908;28;20205;-86
2022/12/01 22:50:55;;;;;;;;;;;;;;;;;;;;;
2022/12/01 22:53:30;;;;;;;45.72;24.27;;;2.00;99.90;;;;;;5101155;28;20536;-86
2022/12/01 22:56:03;;;;;;;55.35;26.98;;;;;;;;;;5107335;28;20221;-86